sensor_id;sensor_type;location;lat;lon;timestamp;P1;durP1;ratioP1;P2;durP2;ratioP2
18274;SDS011;19470;49.322;7.218;2022-12-04T00:00:18;36.67;;;18.53;;
18274;SDS011;19470;49.322;7.218;2022-12-04T00:02:45;38.70;;;18.93;;
18274;SDS011;19470;49.322;7.218;2022-12-04T00:05:11;38.60;;;20.23;;
18274;SDS011;19470;49.322;7.218;2022-12-04T00:07:38;33.30;;;18.23;;
18274;SDS011;19470;49.322;7.218;2022-12-04T00:10:05;35.90;;;19.47;;
18274;SDS011;19470;49.322;7.218;2022-12-04T00:12:33;38.67;;;17.43;;
18274;SDS011;19470;49.322;7.218;2022-12-04T00:15:01;25.23;;;14.60;;
18274;SDS011;19470;49.322;7.218;2022-12-04T00:17:28;35.37;;;17.83;;
18274;SDS011;19470;49.322;7.218;2022-12-04T00:19:54;39.80;;;20.33;;
18274;SDS011;19470;49.322;7.218;2022-12-04T00:22:21;37.87;;;17.77;;
18274;SDS011;19470;49.322;7.218;2022-12-04T00:24:48;37.37;;;19.03;;
18274;SDS011;19470;49.322;7.218;2022-12-04T00:27:14;32.83;;;17.70;;
18274;SDS011;19470;49.322;7.218;2022-12-04T00:29:41;33.70;;;17.30;;
18274;SDS011;19470;49.322;7.218;2022-12-04T00:32:09;34.67;;;17.73;;
18274;SDS011;19470;49.322;7.218;2022-12-04T00:34:35;37.13;;;18.20;;
18274;SDS011;19470;49.322;7.218;2022-12-04T00:37:02;32.17;;;17.07;;
18274;SDS011;19470;49.322;7.218;2022-12-04T00:39:28;33.63;;;18.47;;
18274;SDS011;19470;49.322;7.218;2022-12-04T00:41:55;37.70;;;18.87;;
18274;SDS011;19470;49.322;7.218;2022-12-04T00:44:21;35.37;;;19.07;;
18274;SDS011;19470;49.322;7.218;2022-12-04T00:46:48;34.50;;;17.33;;
18274;SDS011;19470;49.322;7.218;2022-12-04T00:49:16;33.63;;;18.43;;
18274;SDS011;19470;49.322;7.218;2022-12-04T00:51:42;38.00;;;18.97;;
18274;SDS011;19470;49.322;7.218;2022-12-04T00:54:09;36.60;;;17.80;;
18274;SDS011;19470;49.322;7.218;2022-12-04T00:56:35;33.77;;;17.90;;
18274;SDS011;19470;49.322;7.218;2022-12-04T00:59:02;35.20;;;18.07;;
18274;SDS011;19470;49.322;7.218;2022-12-04T01:01:28;34.70;;;18.37;;
18274;SDS011;19470;49.322;7.218;2022-12-04T01:03:55;32.23;;;17.43;;
18274;SDS011;19470;49.322;7.218;2022-12-04T01:06:24;36.10;;;18.37;;
18274;SDS011;19470;49.322;7.218;2022-12-04T01:08:52;31.60;;;17.13;;
18274;SDS011;19470;49.322;7.218;2022-12-04T01:11:20;32.77;;;17.33;;
18274;SDS011;19470;49.322;7.218;2022-12-04T01:13:48;33.40;;;17.57;;
18274;SDS011;19470;49.322;7.218;2022-12-04T01:16:16;35.70;;;18.03;;
18274;SDS011;19470;49.322;7.218;2022-12-04T01:18:44;30.23;;;16.60;;
18274;SDS011;19470;49.322;7.218;2022-12-04T01:21:11;35.80;;;18.13;;
18274;SDS011;19470;49.322;7.218;2022-12-04T01:23:39;33.10;;;18.47;;
18274;SDS011;19470;49.322;7.218;2022-12-04T01:26:05;30.13;;;17.17;;
18274;SDS011;19470;49.322;7.218;2022-12-04T01:28:32;32.70;;;17.77;;
18274;SDS011;19470;49.322;7.218;2022-12-04T01:31:00;33.67;;;17.27;;
18274;SDS011;19470;49.322;7.218;2022-12-04T01:33:27;23.00;;;15.17;;
18274;SDS011;19470;49.322;7.218;2022-12-04T01:35:55;33.37;;;16.80;;
18274;SDS011;19470;49.322;7.218;2022-12-04T01:38:23;32.73;;;17.20;;
18274;SDS011;19470;49.322;7.218;2022-12-04T01:40:51;29.63;;;17.03;;
18274;SDS011;19470;49.322;7.218;2022-12-04T01:43:19;32.73;;;17.37;;
18274;SDS011;19470;49.322;7.218;2022-12-04T01:45:46;28.57;;;15.53;;
18274;SDS011;19470;49.322;7.218;2022-12-04T01:48:16;26.80;;;15.97;;
18274;SDS011;19470;49.322;7.218;2022-12-04T01:50:46;30.23;;;16.57;;
18274;SDS011;19470;49.322;7.218;2022-12-04T01:53:16;29.67;;;16.20;;
18274;SDS011;19470;49.322;7.218;2022-12-04T01:55:44;24.83;;;14.77;;
18274;SDS011;19470;49.322;7.218;2022-12-04T01:58:13;28.53;;;16.00;;
18274;SDS011;19470;49.322;7.218;2022-12-04T02:00:42;27.13;;;15.57;;
18274;SDS011;19470;49.322;7.218;2022-12-04T02:03:10;26.20;;;14.63;;
18274;SDS011;19470;49.322;7.218;2022-12-04T02:05:38;29.13;;;15.73;;
18274;SDS011;19470;49.322;7.218;2022-12-04T02:08:04;30.50;;;17.37;;
18274;SDS011;19470;49.322;7.218;2022-12-04T02:10:34;28.13;;;15.80;;
18274;SDS011;19470;49.322;7.218;2022-12-04T02:13:11;28.30;;;16.03;;
18274;SDS011;19470;49.322;7.218;2022-12-04T02:15:44;27.83;;;15.60;;
18274;SDS011;19470;49.322;7.218;2022-12-04T02:18:20;33.50;;;18.40;;
18274;SDS011;19470;49.322;7.218;2022-12-04T02:21:01;29.90;;;16.27;;
18274;SDS011;19470;49.322;7.218;2022-12-04T02:23:36;28.27;;;16.83;;
18274;SDS011;19470;49.322;7.218;2022-12-04T02:26:25;27.50;;;15.10;;
18274;SDS011;19470;49.322;7.218;2022-12-04T02:29:02;26.73;;;15.60;;
18274;SDS011;19470;49.322;7.218;2022-12-04T02:31:36;26.27;;;15.50;;
18274;SDS011;19470;49.322;7.218;2022-12-04T02:34:10;27.83;;;15.00;;
18274;SDS011;19470;49.322;7.218;2022-12-04T02:36:42;25.20;;;15.43;;
18274;SDS011;19470;49.322;7.218;2022-12-04T02:39:14;25.90;;;14.73;;
18274;SDS011;19470;49.322;7.218;2022-12-04T02:41:45;24.00;;;14.27;;
18274;SDS011;19470;49.322;7.218;2022-12-04T02:44:21;27.37;;;14.73;;
18274;SDS011;19470;49.322;7.218;2022-12-04T02:46:51;24.93;;;13.73;;
18274;SDS011;19470;49.322;7.218;2022-12-04T02:49:22;25.27;;;14.83;;
18274;SDS011;19470;49.322;7.218;2022-12-04T02:51:53;24.30;;;14.17;;
18274;SDS011;19470;49.322;7.218;2022-12-04T02:54:23;23.43;;;13.90;;
18274;SDS011;19470;49.322;7.218;2022-12-04T02:56:55;24.43;;;14.43;;
18274;SDS011;19470;49.322;7.218;2022-12-04T02:59:25;21.17;;;12.33;;
18274;SDS011;19470;49.322;7.218;2022-12-04T03:01:56;20.23;;;12.47;;
18274;SDS011;19470;49.322;7.218;2022-12-04T03:04:31;22.30;;;12.53;;
18274;SDS011;19470;49.322;7.218;2022-12-04T03:06:58;22.27;;;12.93;;
18274;SDS011;19470;49.322;7.218;2022-12-04T03:09:31;21.90;;;14.17;;
18274;SDS011;19470;49.322;7.218;2022-12-04T03:12:02;24.50;;;14.87;;
18274;SDS011;19470;49.322;7.218;2022-12-04T03:14:36;24.07;;;13.93;;
18274;SDS011;19470;49.322;7.218;2022-12-04T03:17:08;32.73;;;29.40;;
18274;SDS011;19470;49.322;7.218;2022-12-04T03:19:40;21.83;;;13.67;;
18274;SDS011;19470;49.322;7.218;2022-12-04T03:22:11;23.57;;;14.13;;
18274;SDS011;19470;49.322;7.218;2022-12-04T03:24:43;21.90;;;13.63;;
18274;SDS011;19470;49.322;7.218;2022-12-04T03:27:15;24.17;;;14.50;;
18274;SDS011;19470;49.322;7.218;2022-12-04T03:29:51;23.43;;;12.90;;
18274;SDS011;19470;49.322;7.218;2022-12-04T03:32:21;23.43;;;13.50;;
18274;SDS011;19470;49.322;7.218;2022-12-04T03:34:53;21.87;;;13.97;;
18274;SDS011;19470;49.322;7.218;2022-12-04T03:37:25;22.43;;;12.93;;
18274;SDS011;19470;49.322;7.218;2022-12-04T03:40:02;22.87;;;14.10;;
18274;SDS011;19470;49.322;7.218;2022-12-04T03:42:38;23.13;;;13.93;;
18274;SDS011;19470;49.322;7.218;2022-12-04T03:45:13;20.00;;;13.33;;
18274;SDS011;19470;49.322;7.218;2022-12-04T03:47:45;23.20;;;13.83;;
18274;SDS011;19470;49.322;7.218;2022-12-04T03:50:19;23.90;;;14.73;;
18274;SDS011;19470;49.322;7.218;2022-12-04T03:52:55;22.07;;;13.70;;
18274;SDS011;19470;49.322;7.218;2022-12-04T03:55:28;22.50;;;14.00;;
18274;SDS011;19470;49.322;7.218;2022-12-04T03:58:01;22.47;;;14.07;;
18274;SDS011;19470;49.322;7.218;2022-12-04T04:00:32;21.27;;;13.80;;
18274;SDS011;19470;49.322;7.218;2022-12-04T04:03:04;23.57;;;14.73;;
18274;SDS011;19470;49.322;7.218;2022-12-04T04:05:34;26.13;;;15.63;;
18274;SDS011;19470;49.322;7.218;2022-12-04T04:08:04;24.17;;;14.80;;
18274;SDS011;19470;49.322;7.218;2022-12-04T04:10:52;22.37;;;14.07;;
18274;SDS011;19470;49.322;7.218;2022-12-04T04:13:24;17.70;;;9.60;;
18274;SDS011;19470;49.322;7.218;2022-12-04T04:16:15;24.53;;;14.43;;
18274;SDS011;19470;49.322;7.218;2022-12-04T04:19:04;23.43;;;14.27;;
18274;SDS011;19470;49.322;7.218;2022-12-04T04:21:49;26.13;;;15.87;;
18274;SDS011;19470;49.322;7.218;2022-12-04T04:24:38;24.07;;;15.07;;
18274;SDS011;19470;49.322;7.218;2022-12-04T04:27:07;25.77;;;15.60;;
18274;SDS011;19470;49.322;7.218;2022-12-04T04:29:34;23.70;;;15.30;;
18274;SDS011;19470;49.322;7.218;2022-12-04T04:32:03;23.97;;;13.97;;
18274;SDS011;19470;49.322;7.218;2022-12-04T04:34:46;24.57;;;14.10;;
18274;SDS011;19470;49.322;7.218;2022-12-04T04:37:19;23.13;;;15.13;;
18274;SDS011;19470;49.322;7.218;2022-12-04T04:39:55;24.40;;;15.50;;
18274;SDS011;19470;49.322;7.218;2022-12-04T04:42:26;25.83;;;14.50;;
18274;SDS011;19470;49.322;7.218;2022-12-04T04:44:59;22.37;;;14.20;;
18274;SDS011;19470;49.322;7.218;2022-12-04T04:47:31;23.27;;;14.90;;
18274;SDS011;19470;49.322;7.218;2022-12-04T04:50:01;23.70;;;15.10;;
18274;SDS011;19470;49.322;7.218;2022-12-04T04:52:30;22.93;;;13.87;;
18274;SDS011;19470;49.322;7.218;2022-12-04T04:54:57;25.97;;;14.50;;
18274;SDS011;19470;49.322;7.218;2022-12-04T04:57:25;27.73;;;15.40;;
18274;SDS011;19470;49.322;7.218;2022-12-04T04:59:53;23.47;;;14.57;;
18274;SDS011;19470;49.322;7.218;2022-12-04T05:02:20;25.37;;;15.67;;
18274;SDS011;19470;49.322;7.218;2022-12-04T05:04:48;24.00;;;14.97;;
18274;SDS011;19470;49.322;7.218;2022-12-04T05:07:14;26.93;;;16.70;;
18274;SDS011;19470;49.322;7.218;2022-12-04T05:09:41;27.60;;;16.77;;
18274;SDS011;19470;49.322;7.218;2022-12-04T05:12:07;27.73;;;15.53;;
18274;SDS011;19470;49.322;7.218;2022-12-04T05:14:34;30.83;;;16.83;;
18274;SDS011;19470;49.322;7.218;2022-12-04T05:17:00;26.87;;;15.97;;
18274;SDS011;19470;49.322;7.218;2022-12-04T05:19:30;27.80;;;16.53;;
18274;SDS011;19470;49.322;7.218;2022-12-04T05:22:16;26.20;;;16.53;;
18274;SDS011;19470;49.322;7.218;2022-12-04T05:24:43;27.00;;;15.77;;
18274;SDS011;19470;49.322;7.218;2022-12-04T05:27:09;29.67;;;17.43;;
18274;SDS011;19470;49.322;7.218;2022-12-04T05:29:36;27.27;;;15.50;;
18274;SDS011;19470;49.322;7.218;2022-12-04T05:32:03;25.93;;;15.53;;
18274;SDS011;19470;49.322;7.218;2022-12-04T05:34:30;34.37;;;18.80;;
18274;SDS011;19470;49.322;7.218;2022-12-04T05:36:56;37.30;;;21.13;;
18274;SDS011;19470;49.322;7.218;2022-12-04T05:39:24;30.60;;;18.73;;
18274;SDS011;19470;49.322;7.218;2022-12-04T05:41:51;28.50;;;16.23;;
18274;SDS011;19470;49.322;7.218;2022-12-04T05:44:17;28.87;;;16.87;;
18274;SDS011;19470;49.322;7.218;2022-12-04T05:46:44;28.33;;;17.00;;
18274;SDS011;19470;49.322;7.218;2022-12-04T05:49:10;25.37;;;15.47;;
18274;SDS011;19470;49.322;7.218;2022-12-04T05:51:37;27.00;;;16.43;;
18274;SDS011;19470;49.322;7.218;2022-12-04T05:54:03;26.90;;;16.43;;
18274;SDS011;19470;49.322;7.218;2022-12-04T05:56:31;31.30;;;17.87;;
18274;SDS011;19470;49.322;7.218;2022-12-04T05:58:58;28.20;;;17.70;;
18274;SDS011;19470;49.322;7.218;2022-12-04T06:01:24;27.10;;;16.87;;
18274;SDS011;19470;49.322;7.218;2022-12-04T06:03:51;27.13;;;16.63;;
18274;SDS011;19470;49.322;7.218;2022-12-04T06:06:18;30.33;;;16.10;;
18274;SDS011;19470;49.322;7.218;2022-12-04T06:08:46;27.13;;;16.10;;
18274;SDS011;19470;49.322;7.218;2022-12-04T06:11:14;28.90;;;17.10;;
18274;SDS011;19470;49.322;7.218;2022-12-04T06:13:44;29.20;;;17.00;;
18274;SDS011;19470;49.322;7.218;2022-12-04T06:16:11;27.27;;;16.23;;
18274;SDS011;19470;49.322;7.218;2022-12-04T06:18:39;31.43;;;17.23;;
18274;SDS011;19470;49.322;7.218;2022-12-04T06:21:06;27.70;;;16.47;;
18274;SDS011;19470;49.322;7.218;2022-12-04T06:23:32;26.23;;;16.60;;
18274;SDS011;19470;49.322;7.218;2022-12-04T06:26:00;26.47;;;15.37;;
18274;SDS011;19470;49.322;7.218;2022-12-04T06:28:28;27.17;;;16.50;;
18274;SDS011;19470;49.322;7.218;2022-12-04T06:30:59;28.03;;;16.07;;
18274;SDS011;19470;49.322;7.218;2022-12-04T06:33:26;28.87;;;17.10;;
18274;SDS011;19470;49.322;7.218;2022-12-04T06:35:56;27.50;;;15.97;;
18274;SDS011;19470;49.322;7.218;2022-12-04T06:38:23;28.13;;;16.37;;
18274;SDS011;19470;49.322;7.218;2022-12-04T06:40:50;25.53;;;14.60;;
18274;SDS011;19470;49.322;7.218;2022-12-04T06:43:16;28.67;;;17.23;;
18274;SDS011;19470;49.322;7.218;2022-12-04T06:45:43;24.77;;;15.03;;
18274;SDS011;19470;49.322;7.218;2022-12-04T06:48:11;25.53;;;15.27;;
18274;SDS011;19470;49.322;7.218;2022-12-04T06:50:37;26.17;;;15.20;;
18274;SDS011;19470;49.322;7.218;2022-12-04T06:53:04;25.63;;;15.80;;
18274;SDS011;19470;49.322;7.218;2022-12-04T06:55:30;24.67;;;15.50;;
18274;SDS011;19470;49.322;7.218;2022-12-04T06:57:57;27.47;;;15.93;;
18274;SDS011;19470;49.322;7.218;2022-12-04T07:00:23;26.87;;;16.87;;
18274;SDS011;19470;49.322;7.218;2022-12-04T07:02:50;27.33;;;15.70;;
18274;SDS011;19470;49.322;7.218;2022-12-04T07:05:18;24.90;;;15.53;;
18274;SDS011;19470;49.322;7.218;2022-12-04T07:07:44;24.60;;;14.33;;
18274;SDS011;19470;49.322;7.218;2022-12-04T07:10:11;27.57;;;16.20;;
18274;SDS011;19470;49.322;7.218;2022-12-04T07:12:37;25.37;;;15.43;;
18274;SDS011;19470;49.322;7.218;2022-12-04T07:15:04;26.40;;;15.10;;
18274;SDS011;19470;49.322;7.218;2022-12-04T07:17:31;24.00;;;14.13;;
18274;SDS011;19470;49.322;7.218;2022-12-04T07:19:58;23.13;;;13.67;;
18274;SDS011;19470;49.322;7.218;2022-12-04T07:22:26;22.37;;;13.30;;
18274;SDS011;19470;49.322;7.218;2022-12-04T07:24:53;22.53;;;13.87;;
18274;SDS011;19470;49.322;7.218;2022-12-04T07:27:19;19.27;;;12.40;;
18274;SDS011;19470;49.322;7.218;2022-12-04T07:29:46;22.57;;;13.80;;
18274;SDS011;19470;49.322;7.218;2022-12-04T07:32:12;23.07;;;13.60;;
18274;SDS011;19470;49.322;7.218;2022-12-04T07:34:39;23.50;;;14.27;;
18274;SDS011;19470;49.322;7.218;2022-12-04T07:37:05;22.90;;;13.57;;
18274;SDS011;19470;49.322;7.218;2022-12-04T07:39:33;21.33;;;13.10;;
18274;SDS011;19470;49.322;7.218;2022-12-04T07:42:00;23.13;;;13.77;;
18274;SDS011;19470;49.322;7.218;2022-12-04T07:44:29;23.57;;;13.77;;
18274;SDS011;19470;49.322;7.218;2022-12-04T07:46:55;23.37;;;13.93;;
18274;SDS011;19470;49.322;7.218;2022-12-04T07:49:22;20.77;;;12.77;;
18274;SDS011;19470;49.322;7.218;2022-12-04T07:51:49;38.27;;;21.67;;
18274;SDS011;19470;49.322;7.218;2022-12-04T07:54:15;31.27;;;18.73;;
18274;SDS011;19470;49.322;7.218;2022-12-04T07:56:43;25.07;;;14.83;;
18274;SDS011;19470;49.322;7.218;2022-12-04T07:59:10;20.60;;;12.33;;
18274;SDS011;19470;49.322;7.218;2022-12-04T08:01:36;23.27;;;13.97;;
18274;SDS011;19470;49.322;7.218;2022-12-04T08:04:03;22.60;;;13.40;;
18274;SDS011;19470;49.322;7.218;2022-12-04T08:06:31;22.03;;;13.60;;
18274;SDS011;19470;49.322;7.218;2022-12-04T08:08:59;24.63;;;14.73;;
18274;SDS011;19470;49.322;7.218;2022-12-04T08:11:26;24.00;;;13.87;;
18274;SDS011;19470;49.322;7.218;2022-12-04T08:13:55;20.43;;;12.90;;
18274;SDS011;19470;49.322;7.218;2022-12-04T08:16:22;23.20;;;13.53;;
18274;SDS011;19470;49.322;7.218;2022-12-04T08:18:49;23.53;;;13.57;;
18274;SDS011;19470;49.322;7.218;2022-12-04T08:21:17;21.97;;;13.87;;
18274;SDS011;19470;49.322;7.218;2022-12-04T08:23:44;57.33;;;31.47;;
18274;SDS011;19470;49.322;7.218;2022-12-04T08:26:12;39.90;;;22.33;;
18274;SDS011;19470;49.322;7.218;2022-12-04T08:28:39;23.17;;;14.67;;
18274;SDS011;19470;49.322;7.218;2022-12-04T08:31:08;22.17;;;13.40;;
18274;SDS011;19470;49.322;7.218;2022-12-04T08:33:36;23.73;;;13.00;;
18274;SDS011;19470;49.322;7.218;2022-12-04T08:36:05;23.43;;;14.80;;
18274;SDS011;19470;49.322;7.218;2022-12-04T08:38:32;22.50;;;13.13;;
18274;SDS011;19470;49.322;7.218;2022-12-04T08:40:59;26.07;;;14.13;;
18274;SDS011;19470;49.322;7.218;2022-12-04T08:43:26;24.10;;;14.00;;
18274;SDS011;19470;49.322;7.218;2022-12-04T08:45:53;20.87;;;11.90;;
18274;SDS011;19470;49.322;7.218;2022-12-04T08:48:22;22.43;;;13.53;;
18274;SDS011;19470;49.322;7.218;2022-12-04T08:50:49;26.43;;;13.90;;
18274;SDS011;19470;49.322;7.218;2022-12-04T08:53:15;24.20;;;14.07;;
18274;SDS011;19470;49.322;7.218;2022-12-04T08:55:43;20.13;;;12.70;;
18274;SDS011;19470;49.322;7.218;2022-12-04T08:58:09;21.43;;;12.87;;
18274;SDS011;19470;49.322;7.218;2022-12-04T09:00:36;24.53;;;13.17;;
18274;SDS011;19470;49.322;7.218;2022-12-04T09:03:02;20.23;;;12.53;;
18274;SDS011;19470;49.322;7.218;2022-12-04T09:05:30;22.50;;;12.80;;
18274;SDS011;19470;49.322;7.218;2022-12-04T09:07:57;20.97;;;12.47;;
18274;SDS011;19470;49.322;7.218;2022-12-04T09:10:23;24.07;;;13.13;;
18274;SDS011;19470;49.322;7.218;2022-12-04T09:12:50;24.40;;;14.27;;
18274;SDS011;19470;49.322;7.218;2022-12-04T09:15:16;37.27;;;21.13;;
18274;SDS011;19470;49.322;7.218;2022-12-04T09:17:43;35.20;;;19.00;;
18274;SDS011;19470;49.322;7.218;2022-12-04T09:20:10;21.33;;;12.33;;
18274;SDS011;19470;49.322;7.218;2022-12-04T09:22:40;21.13;;;12.13;;
18274;SDS011;19470;49.322;7.218;2022-12-04T09:25:06;24.43;;;14.03;;
18274;SDS011;19470;49.322;7.218;2022-12-04T09:27:34;23.20;;;13.43;;
18274;SDS011;19470;49.322;7.218;2022-12-04T09:30:01;22.47;;;12.70;;
18274;SDS011;19470;49.322;7.218;2022-12-04T09:32:28;30.13;;;17.07;;
18274;SDS011;19470;49.322;7.218;2022-12-04T09:34:55;26.07;;;13.67;;
18274;SDS011;19470;49.322;7.218;2022-12-04T09:37:21;22.07;;;12.83;;
18274;SDS011;19470;49.322;7.218;2022-12-04T09:39:49;23.33;;;12.97;;
18274;SDS011;19470;49.322;7.218;2022-12-04T09:42:22;20.13;;;12.47;;
18274;SDS011;19470;49.322;7.218;2022-12-04T09:44:57;21.67;;;12.87;;
18274;SDS011;19470;49.322;7.218;2022-12-04T09:47:28;21.20;;;12.60;;
18274;SDS011;19470;49.322;7.218;2022-12-04T09:49:59;22.20;;;13.23;;
18274;SDS011;19470;49.322;7.218;2022-12-04T09:52:34;20.70;;;11.60;;
18274;SDS011;19470;49.322;7.218;2022-12-04T09:55:12;20.97;;;12.00;;
18274;SDS011;19470;49.322;7.218;2022-12-04T09:57:43;24.53;;;13.13;;
18274;SDS011;19470;49.322;7.218;2022-12-04T10:00:14;24.00;;;13.00;;
18274;SDS011;19470;49.322;7.218;2022-12-04T10:02:44;21.90;;;12.17;;
18274;SDS011;19470;49.322;7.218;2022-12-04T10:05:15;22.10;;;12.20;;
18274;SDS011;19470;49.322;7.218;2022-12-04T10:07:47;19.30;;;12.73;;
18274;SDS011;19470;49.322;7.218;2022-12-04T10:10:32;19.47;;;11.20;;
18274;SDS011;19470;49.322;7.218;2022-12-04T10:13:04;18.97;;;12.00;;
18274;SDS011;19470;49.322;7.218;2022-12-04T10:15:42;18.83;;;11.43;;
18274;SDS011;19470;49.322;7.218;2022-12-04T10:18:20;22.52;;;12.95;;
18274;SDS011;19470;49.322;7.218;2022-12-04T10:20:58;23.77;;;14.07;;
18274;SDS011;19470;49.322;7.218;2022-12-04T10:23:37;18.37;;;11.17;;
18274;SDS011;19470;49.322;7.218;2022-12-04T10:26:16;20.75;;;11.52;;
18274;SDS011;19470;49.322;7.218;2022-12-04T10:28:47;22.37;;;12.60;;
18274;SDS011;19470;49.322;7.218;2022-12-04T10:31:20;21.20;;;11.90;;
18274;SDS011;19470;49.322;7.218;2022-12-04T10:33:48;23.60;;;12.48;;
18274;SDS011;19470;49.322;7.218;2022-12-04T10:36:19;20.10;;;11.57;;
18274;SDS011;19470;49.322;7.218;2022-12-04T10:38:50;21.63;;;11.15;;
18274;SDS011;19470;49.322;7.218;2022-12-04T10:41:23;18.97;;;11.93;;
18274;SDS011;19470;49.322;7.218;2022-12-04T10:43:53;21.05;;;11.82;;
18274;SDS011;19470;49.322;7.218;2022-12-04T10:46:21;19.77;;;11.83;;
18274;SDS011;19470;49.322;7.218;2022-12-04T10:48:50;23.03;;;12.40;;
18274;SDS011;19470;49.322;7.218;2022-12-04T10:51:21;24.97;;;13.07;;
18274;SDS011;19470;49.322;7.218;2022-12-04T10:53:48;23.90;;;13.53;;
18274;SDS011;19470;49.322;7.218;2022-12-04T10:56:15;21.23;;;12.40;;
18274;SDS011;19470;49.322;7.218;2022-12-04T10:58:54;18.67;;;11.17;;
18274;SDS011;19470;49.322;7.218;2022-12-04T11:01:22;20.70;;;11.57;;
18274;SDS011;19470;49.322;7.218;2022-12-04T11:03:53;17.93;;;11.10;;
18274;SDS011;19470;49.322;7.218;2022-12-04T11:06:24;19.33;;;11.73;;
18274;SDS011;19470;49.322;7.218;2022-12-04T11:08:52;21.13;;;11.80;;
18274;SDS011;19470;49.322;7.218;2022-12-04T11:11:22;20.10;;;12.27;;
18274;SDS011;19470;49.322;7.218;2022-12-04T11:14:00;20.10;;;11.13;;
18274;SDS011;19470;49.322;7.218;2022-12-04T11:16:31;18.83;;;11.80;;
18274;SDS011;19470;49.322;7.218;2022-12-04T11:19:00;22.23;;;12.37;;
18274;SDS011;19470;49.322;7.218;2022-12-04T11:21:27;20.83;;;12.57;;
18274;SDS011;19470;49.322;7.218;2022-12-04T11:23:55;21.47;;;12.17;;
18274;SDS011;19470;49.322;7.218;2022-12-04T11:26:27;19.20;;;11.23;;
18274;SDS011;19470;49.322;7.218;2022-12-04T11:28:55;18.83;;;11.67;;
18274;SDS011;19470;49.322;7.218;2022-12-04T11:31:26;19.60;;;11.53;;
18274;SDS011;19470;49.322;7.218;2022-12-04T11:33:56;18.33;;;11.23;;
18274;SDS011;19470;49.322;7.218;2022-12-04T11:36:25;17.87;;;10.60;;
18274;SDS011;19470;49.322;7.218;2022-12-04T11:39:02;19.63;;;11.90;;
18274;SDS011;19470;49.322;7.218;2022-12-04T11:41:30;16.67;;;10.13;;
18274;SDS011;19470;49.322;7.218;2022-12-04T11:43:58;16.87;;;10.67;;
18274;SDS011;19470;49.322;7.218;2022-12-04T11:46:27;20.17;;;12.00;;
18274;SDS011;19470;49.322;7.218;2022-12-04T11:48:56;18.13;;;11.40;;
18274;SDS011;19470;49.322;7.218;2022-12-04T11:51:25;19.17;;;11.83;;
18274;SDS011;19470;49.322;7.218;2022-12-04T11:54:00;22.43;;;12.33;;
18274;SDS011;19470;49.322;7.218;2022-12-04T11:56:32;18.97;;;11.63;;
18274;SDS011;19470;49.322;7.218;2022-12-04T11:59:05;19.60;;;11.77;;
18274;SDS011;19470;49.322;7.218;2022-12-04T12:01:55;21.37;;;12.13;;
18274;SDS011;19470;49.322;7.218;2022-12-04T12:04:32;22.00;;;12.03;;
18274;SDS011;19470;49.322;7.218;2022-12-04T12:07:15;20.03;;;11.77;;
18274;SDS011;19470;49.322;7.218;2022-12-04T12:09:51;23.00;;;13.77;;
18274;SDS011;19470;49.322;7.218;2022-12-04T12:12:28;21.90;;;12.97;;
18274;SDS011;19470;49.322;7.218;2022-12-04T12:15:04;18.30;;;11.80;;
18274;SDS011;19470;49.322;7.218;2022-12-04T12:17:42;19.70;;;11.90;;
18274;SDS011;19470;49.322;7.218;2022-12-04T12:20:16;21.55;;;11.98;;
18274;SDS011;19470;49.322;7.218;2022-12-04T12:22:57;18.33;;;11.70;;
18274;SDS011;19470;49.322;7.218;2022-12-04T12:25:34;18.47;;;11.43;;
18274;SDS011;19470;49.322;7.218;2022-12-04T12:31:31;20.33;;;11.53;;
18274;SDS011;19470;49.322;7.218;2022-12-04T12:34:13;19.33;;;10.77;;
18274;SDS011;19470;49.322;7.218;2022-12-04T12:36:46;20.97;;;11.90;;
18274;SDS011;19470;49.322;7.218;2022-12-04T12:39:17;18.83;;;11.17;;
18274;SDS011;19470;49.322;7.218;2022-12-04T12:41:49;20.23;;;11.20;;
18274;SDS011;19470;49.322;7.218;2022-12-04T12:44:18;20.00;;;11.03;;
18274;SDS011;19470;49.322;7.218;2022-12-04T12:46:51;19.20;;;11.67;;
18274;SDS011;19470;49.322;7.218;2022-12-04T12:49:23;21.07;;;11.93;;
18274;SDS011;19470;49.322;7.218;2022-12-04T12:51:55;20.77;;;11.50;;
18274;SDS011;19470;49.322;7.218;2022-12-04T12:54:27;19.30;;;11.17;;
18274;SDS011;19470;49.322;7.218;2022-12-04T12:57:01;17.70;;;10.73;;
18274;SDS011;19470;49.322;7.218;2022-12-04T12:59:31;18.63;;;11.20;;
18274;SDS011;19470;49.322;7.218;2022-12-04T13:02:00;19.67;;;11.95;;
18274;SDS011;19470;49.322;7.218;2022-12-04T13:04:34;19.47;;;11.50;;
18274;SDS011;19470;49.322;7.218;2022-12-04T13:07:09;20.27;;;11.70;;
18274;SDS011;19470;49.322;7.218;2022-12-04T13:09:47;22.60;;;11.70;;
18274;SDS011;19470;49.322;7.218;2022-12-04T13:12:17;20.20;;;11.37;;
18274;SDS011;19470;49.322;7.218;2022-12-04T13:14:46;23.47;;;12.70;;
18274;SDS011;19470;49.322;7.218;2022-12-04T13:17:13;25.03;;;12.60;;
18274;SDS011;19470;49.322;7.218;2022-12-04T13:19:45;18.53;;;11.13;;
18274;SDS011;19470;49.322;7.218;2022-12-04T13:22:17;19.27;;;11.93;;
18274;SDS011;19470;49.322;7.218;2022-12-04T13:25:11;21.83;;;11.73;;
18274;SDS011;19470;49.322;7.218;2022-12-04T13:27:55;22.27;;;11.80;;
18274;SDS011;19470;49.322;7.218;2022-12-04T13:30:30;20.17;;;11.77;;
18274;SDS011;19470;49.322;7.218;2022-12-04T13:33:22;23.55;;;11.88;;
18274;SDS011;19470;49.322;7.218;2022-12-04T13:36:16;25.20;;;13.33;;
18274;SDS011;19470;49.322;7.218;2022-12-04T13:38:57;25.20;;;13.63;;
18274;SDS011;19470;49.322;7.218;2022-12-04T13:41:44;22.33;;;12.90;;
18274;SDS011;19470;49.322;7.218;2022-12-04T13:44:11;53.80;;;27.47;;
18274;SDS011;19470;49.322;7.218;2022-12-04T13:46:48;22.60;;;12.30;;
18274;SDS011;19470;49.322;7.218;2022-12-04T13:49:23;23.23;;;12.40;;
18274;SDS011;19470;49.322;7.218;2022-12-04T13:51:53;21.00;;;12.27;;
18274;SDS011;19470;49.322;7.218;2022-12-04T13:54:25;24.57;;;13.20;;
18274;SDS011;19470;49.322;7.218;2022-12-04T13:56:54;20.53;;;12.03;;
18274;SDS011;19470;49.322;7.218;2022-12-04T13:59:23;22.07;;;12.40;;
18274;SDS011;19470;49.322;7.218;2022-12-04T14:02:01;24.93;;;12.83;;
18274;SDS011;19470;49.322;7.218;2022-12-04T14:04:43;24.03;;;13.53;;
18274;SDS011;19470;49.322;7.218;2022-12-04T14:07:21;24.43;;;13.53;;
18274;SDS011;19470;49.322;7.218;2022-12-04T14:09:51;22.77;;;12.63;;
18274;SDS011;19470;49.322;7.218;2022-12-04T14:12:22;23.00;;;12.73;;
18274;SDS011;19470;49.322;7.218;2022-12-04T14:14:51;24.77;;;12.70;;
18274;SDS011;19470;49.322;7.218;2022-12-04T14:17:22;22.87;;;12.07;;
18274;SDS011;19470;49.322;7.218;2022-12-04T14:19:51;24.87;;;13.33;;
18274;SDS011;19470;49.322;7.218;2022-12-04T14:22:27;23.92;;;12.55;;
18274;SDS011;19470;49.322;7.218;2022-12-04T14:25:05;22.73;;;11.93;;
18274;SDS011;19470;49.322;7.218;2022-12-04T14:27:45;21.43;;;11.93;;
18274;SDS011;19470;49.322;7.218;2022-12-04T14:30:17;20.03;;;11.47;;
18274;SDS011;19470;49.322;7.218;2022-12-04T14:32:46;22.92;;;11.13;;
18274;SDS011;19470;49.322;7.218;2022-12-04T14:35:16;21.63;;;12.10;;
18274;SDS011;19470;49.322;7.218;2022-12-04T14:37:48;20.63;;;11.33;;
18274;SDS011;19470;49.322;7.218;2022-12-04T14:40:18;20.02;;;11.07;;
18274;SDS011;19470;49.322;7.218;2022-12-04T14:42:47;19.10;;;11.30;;